Terminal Aerodrome Forecast
Issued by NWS Quad Cities IA IL

Home | Current Version | Previous Version | Text Only | Print | Product List | Glossary On
Versions: 1 2 3 4 5 6 7 8 9 10 11 12 13 14 15 16 17 18 19 20 21 22 23 24 25 26 27 28 29 30 31 32 33
000
FTUS43 KDVN 241744
TAFDBQ
TAF
KDBQ 241744Z 2418/2518 10012KT 5SM -SHRA BKN030 OVC060
     FM250000 16012KT 4SM SHRA BR BKN012 OVC030
     FM250700 18007KT 2SM -SHRA BR SCT007 BKN009 OVC012
     FM251400 24015G25KT 5SM BR VCSH BKN020=

USA.gov is the U.S. government's official web portal to all federal, state and local government web resources and services.